sensor_id;sensor_type;location;lat;lon;timestamp;P1;durP1;ratioP1;P2;durP2;ratioP2
7525;SDS011;3804;50.860;6.208;2023-03-24T00:02:21;3.40;;;1.80;;
7525;SDS011;3804;50.860;6.208;2023-03-24T00:04:49;1.93;;;1.57;;
7525;SDS011;3804;50.860;6.208;2023-03-24T00:07:18;3.87;;;1.90;;
7525;SDS011;3804;50.860;6.208;2023-03-24T00:09:45;2.87;;;1.63;;
7525;SDS011;3804;50.860;6.208;2023-03-24T00:12:12;2.47;;;1.83;;
7525;SDS011;3804;50.860;6.208;2023-03-24T00:14:44;3.00;;;1.87;;
7525;SDS011;3804;50.860;6.208;2023-03-24T00:17:14;1.97;;;1.77;;
7525;SDS011;3804;50.860;6.208;2023-03-24T00:19:43;3.40;;;2.00;;
7525;SDS011;3804;50.860;6.208;2023-03-24T00:22:12;2.17;;;1.60;;
7525;SDS011;3804;50.860;6.208;2023-03-24T00:24:43;1.90;;;1.70;;
7525;SDS011;3804;50.860;6.208;2023-03-24T00:27:12;2.10;;;1.77;;
7525;SDS011;3804;50.860;6.208;2023-03-24T00:29:39;1.97;;;1.70;;
7525;SDS011;3804;50.860;6.208;2023-03-24T00:32:07;5.40;;;1.97;;
7525;SDS011;3804;50.860;6.208;2023-03-24T00:34:34;2.47;;;2.07;;
7525;SDS011;3804;50.860;6.208;2023-03-24T00:37:04;2.30;;;2.10;;
7525;SDS011;3804;50.860;6.208;2023-03-24T00:39:32;3.33;;;2.20;;
7525;SDS011;3804;50.860;6.208;2023-03-24T00:41:58;2.27;;;2.07;;
7525;SDS011;3804;50.860;6.208;2023-03-24T00:44:27;2.47;;;2.27;;
7525;SDS011;3804;50.860;6.208;2023-03-24T00:46:54;2.37;;;1.90;;
7525;SDS011;3804;50.860;6.208;2023-03-24T00:49:22;2.43;;;2.10;;
7525;SDS011;3804;50.860;6.208;2023-03-24T00:52:08;3.27;;;2.03;;
7525;SDS011;3804;50.860;6.208;2023-03-24T00:54:36;5.30;;;2.27;;
7525;SDS011;3804;50.860;6.208;2023-03-24T00:57:03;2.30;;;1.70;;
7525;SDS011;3804;50.860;6.208;2023-03-24T00:59:31;2.80;;;2.10;;
7525;SDS011;3804;50.860;6.208;2023-03-24T01:01:58;4.23;;;2.27;;
7525;SDS011;3804;50.860;6.208;2023-03-24T01:04:24;4.30;;;2.30;;
7525;SDS011;3804;50.860;6.208;2023-03-24T01:06:52;3.67;;;2.20;;
7525;SDS011;3804;50.860;6.208;2023-03-24T01:09:20;2.20;;;2.00;;
7525;SDS011;3804;50.860;6.208;2023-03-24T01:11:47;2.47;;;2.10;;
7525;SDS011;3804;50.860;6.208;2023-03-24T01:14:14;2.80;;;2.40;;
7525;SDS011;3804;50.860;6.208;2023-03-24T01:16:41;3.07;;;2.50;;
7525;SDS011;3804;50.860;6.208;2023-03-24T01:19:08;3.63;;;2.17;;
7525;SDS011;3804;50.860;6.208;2023-03-24T01:21:37;2.23;;;2.03;;
7525;SDS011;3804;50.860;6.208;2023-03-24T01:24:04;3.43;;;1.90;;
7525;SDS011;3804;50.860;6.208;2023-03-24T01:26:31;2.93;;;2.30;;
7525;SDS011;3804;50.860;6.208;2023-03-24T01:28:58;2.73;;;2.00;;
7525;SDS011;3804;50.860;6.208;2023-03-24T01:31:25;3.03;;;2.10;;
7525;SDS011;3804;50.860;6.208;2023-03-24T01:33:52;4.80;;;2.50;;
7525;SDS011;3804;50.860;6.208;2023-03-24T01:36:18;3.77;;;2.23;;
7525;SDS011;3804;50.860;6.208;2023-03-24T01:38:45;2.20;;;2.00;;
7525;SDS011;3804;50.860;6.208;2023-03-24T01:41:12;2.53;;;2.33;;
7525;SDS011;3804;50.860;6.208;2023-03-24T01:43:39;6.33;;;2.80;;
7525;SDS011;3804;50.860;6.208;2023-03-24T01:46:17;4.00;;;2.50;;
7525;SDS011;3804;50.860;6.208;2023-03-24T01:53:47;2.37;;;2.17;;
7525;SDS011;3804;50.860;6.208;2023-03-24T01:56:15;2.53;;;2.20;;
7525;SDS011;3804;50.860;6.208;2023-03-24T01:58:45;4.67;;;2.50;;
7525;SDS011;3804;50.860;6.208;2023-03-24T02:01:19;2.43;;;2.20;;
7525;SDS011;3804;50.860;6.208;2023-03-24T02:04:13;3.97;;;2.47;;
7525;SDS011;3804;50.860;6.208;2023-03-24T02:06:43;3.23;;;2.10;;
7525;SDS011;3804;50.860;6.208;2023-03-24T02:09:12;3.43;;;2.37;;
7525;SDS011;3804;50.860;6.208;2023-03-24T02:11:40;2.77;;;2.40;;
7525;SDS011;3804;50.860;6.208;2023-03-24T02:14:07;2.87;;;2.17;;
7525;SDS011;3804;50.860;6.208;2023-03-24T02:16:47;3.50;;;2.20;;
7525;SDS011;3804;50.860;6.208;2023-03-24T02:24:46;3.93;;;1.73;;
7525;SDS011;3804;50.860;6.208;2023-03-24T02:27:32;2.27;;;1.93;;
7525;SDS011;3804;50.860;6.208;2023-03-24T02:30:07;2.00;;;1.80;;
7525;SDS011;3804;50.860;6.208;2023-03-24T02:40:32;1.90;;;1.67;;
7525;SDS011;3804;50.860;6.208;2023-03-24T02:43:16;2.07;;;1.70;;
7525;SDS011;3804;50.860;6.208;2023-03-24T02:51:15;1.97;;;1.77;;
7525;SDS011;3804;50.860;6.208;2023-03-24T02:53:54;2.00;;;1.80;;
7525;SDS011;3804;50.860;6.208;2023-03-24T02:56:41;3.20;;;2.10;;
7525;SDS011;3804;50.860;6.208;2023-03-24T02:59:41;2.33;;;1.90;;
7525;SDS011;3804;50.860;6.208;2023-03-24T03:02:41;3.30;;;1.80;;
7525;SDS011;3804;50.860;6.208;2023-03-24T03:05:32;2.73;;;2.53;;
7525;SDS011;3804;50.860;6.208;2023-03-24T03:08:00;2.10;;;1.90;;
7525;SDS011;3804;50.860;6.208;2023-03-24T03:10:36;5.10;;;2.43;;
7525;SDS011;3804;50.860;6.208;2023-03-24T03:13:09;2.17;;;1.97;;
7525;SDS011;3804;50.860;6.208;2023-03-24T03:15:38;6.10;;;2.00;;
7525;SDS011;3804;50.860;6.208;2023-03-24T03:18:10;2.43;;;2.20;;
7525;SDS011;3804;50.860;6.208;2023-03-24T03:20:44;3.17;;;2.40;;
7525;SDS011;3804;50.860;6.208;2023-03-24T03:23:18;5.83;;;2.33;;
7525;SDS011;3804;50.860;6.208;2023-03-24T03:25:48;2.70;;;2.30;;
7525;SDS011;3804;50.860;6.208;2023-03-24T03:28:21;3.07;;;2.10;;
7525;SDS011;3804;50.860;6.208;2023-03-24T03:30:51;2.20;;;2.00;;
7525;SDS011;3804;50.860;6.208;2023-03-24T03:33:54;3.50;;;2.30;;
7525;SDS011;3804;50.860;6.208;2023-03-24T03:39:05;3.87;;;2.37;;
7525;SDS011;3804;50.860;6.208;2023-03-24T03:41:35;2.60;;;2.40;;
7525;SDS011;3804;50.860;6.208;2023-03-24T03:44:03;2.60;;;1.87;;
7525;SDS011;3804;50.860;6.208;2023-03-24T03:46:30;2.33;;;2.10;;
7525;SDS011;3804;50.860;6.208;2023-03-24T03:48:57;2.40;;;2.20;;
7525;SDS011;3804;50.860;6.208;2023-03-24T03:51:23;3.07;;;2.50;;
7525;SDS011;3804;50.860;6.208;2023-03-24T03:53:58;2.40;;;2.20;;
7525;SDS011;3804;50.860;6.208;2023-03-24T03:56:29;2.30;;;2.10;;
7525;SDS011;3804;50.860;6.208;2023-03-24T04:01:50;3.53;;;2.40;;
7525;SDS011;3804;50.860;6.208;2023-03-24T04:07:38;2.77;;;2.13;;
7525;SDS011;3804;50.860;6.208;2023-03-24T04:10:26;3.83;;;2.60;;
7525;SDS011;3804;50.860;6.208;2023-03-24T04:24:36;2.33;;;1.60;;
7525;SDS011;3804;50.860;6.208;2023-03-24T04:27:20;2.10;;;1.63;;
7525;SDS011;3804;50.860;6.208;2023-03-24T04:32:33;3.47;;;1.60;;
7525;SDS011;3804;50.860;6.208;2023-03-24T04:35:03;2.23;;;1.70;;
7525;SDS011;3804;50.860;6.208;2023-03-24T04:37:52;3.00;;;1.77;;
7525;SDS011;3804;50.860;6.208;2023-03-24T04:40:25;4.07;;;1.77;;
7525;SDS011;3804;50.860;6.208;2023-03-24T04:42:52;3.60;;;2.03;;
7525;SDS011;3804;50.860;6.208;2023-03-24T04:45:24;4.17;;;2.17;;
7525;SDS011;3804;50.860;6.208;2023-03-24T04:48:14;2.97;;;2.00;;
7525;SDS011;3804;50.860;6.208;2023-03-24T04:51:01;3.10;;;1.87;;
7525;SDS011;3804;50.860;6.208;2023-03-24T04:53:44;4.03;;;2.00;;
7525;SDS011;3804;50.860;6.208;2023-03-24T04:59:03;2.90;;;1.83;;
7525;SDS011;3804;50.860;6.208;2023-03-24T05:01:30;3.80;;;2.23;;
7525;SDS011;3804;50.860;6.208;2023-03-24T05:04:23;3.73;;;1.83;;
7525;SDS011;3804;50.860;6.208;2023-03-24T05:06:51;4.30;;;1.70;;
7525;SDS011;3804;50.860;6.208;2023-03-24T05:09:22;2.83;;;2.03;;
7525;SDS011;3804;50.860;6.208;2023-03-24T05:11:49;6.03;;;1.67;;
7525;SDS011;3804;50.860;6.208;2023-03-24T05:14:18;2.63;;;1.40;;
7525;SDS011;3804;50.860;6.208;2023-03-24T05:16:45;2.53;;;1.63;;
7525;SDS011;3804;50.860;6.208;2023-03-24T05:19:15;5.37;;;1.43;;
7525;SDS011;3804;50.860;6.208;2023-03-24T05:21:43;4.73;;;2.67;;
7525;SDS011;3804;50.860;6.208;2023-03-24T05:24:10;5.47;;;1.97;;
7525;SDS011;3804;50.860;6.208;2023-03-24T05:26:38;4.70;;;2.03;;
7525;SDS011;3804;50.860;6.208;2023-03-24T05:29:10;2.83;;;1.70;;
7525;SDS011;3804;50.860;6.208;2023-03-24T05:31:41;3.97;;;2.20;;
7525;SDS011;3804;50.860;6.208;2023-03-24T05:34:09;4.97;;;2.10;;
7525;SDS011;3804;50.860;6.208;2023-03-24T05:36:47;5.37;;;2.07;;
7525;SDS011;3804;50.860;6.208;2023-03-24T05:39:18;5.67;;;2.33;;
7525;SDS011;3804;50.860;6.208;2023-03-24T05:41:59;6.07;;;2.00;;
7525;SDS011;3804;50.860;6.208;2023-03-24T05:44:26;3.80;;;2.03;;
7525;SDS011;3804;50.860;6.208;2023-03-24T05:47:02;9.20;;;2.20;;
7525;SDS011;3804;50.860;6.208;2023-03-24T05:49:30;4.67;;;2.23;;
7525;SDS011;3804;50.860;6.208;2023-03-24T05:51:58;5.47;;;2.10;;
7525;SDS011;3804;50.860;6.208;2023-03-24T05:54:26;2.83;;;2.10;;
7525;SDS011;3804;50.860;6.208;2023-03-24T05:57:01;6.93;;;1.70;;
7525;SDS011;3804;50.860;6.208;2023-03-24T05:59:50;8.17;;;2.50;;
7525;SDS011;3804;50.860;6.208;2023-03-24T06:02:38;5.23;;;1.97;;
7525;SDS011;3804;50.860;6.208;2023-03-24T06:05:19;9.63;;;2.27;;
7525;SDS011;3804;50.860;6.208;2023-03-24T06:07:46;5.87;;;2.00;;
7525;SDS011;3804;50.860;6.208;2023-03-24T06:10:13;5.27;;;1.87;;
7525;SDS011;3804;50.860;6.208;2023-03-24T06:12:49;6.00;;;1.97;;
7525;SDS011;3804;50.860;6.208;2023-03-24T06:15:16;4.27;;;1.80;;
7525;SDS011;3804;50.860;6.208;2023-03-24T06:17:44;6.63;;;2.10;;
7525;SDS011;3804;50.860;6.208;2023-03-24T06:20:32;4.40;;;2.13;;
7525;SDS011;3804;50.860;6.208;2023-03-24T06:23:03;6.60;;;1.87;;
7525;SDS011;3804;50.860;6.208;2023-03-24T06:25:40;5.30;;;1.90;;
7525;SDS011;3804;50.860;6.208;2023-03-24T06:28:31;7.67;;;2.10;;
7525;SDS011;3804;50.860;6.208;2023-03-24T06:31:06;5.37;;;1.87;;
7525;SDS011;3804;50.860;6.208;2023-03-24T06:33:40;6.13;;;1.77;;
7525;SDS011;3804;50.860;6.208;2023-03-24T06:36:09;8.67;;;2.23;;
7525;SDS011;3804;50.860;6.208;2023-03-24T06:38:40;6.47;;;2.13;;
7525;SDS011;3804;50.860;6.208;2023-03-24T06:41:08;11.57;;;2.63;;
7525;SDS011;3804;50.860;6.208;2023-03-24T06:43:35;10.30;;;3.07;;
7525;SDS011;3804;50.860;6.208;2023-03-24T06:46:03;8.23;;;2.93;;
7525;SDS011;3804;50.860;6.208;2023-03-24T06:48:30;6.80;;;2.73;;
7525;SDS011;3804;50.860;6.208;2023-03-24T06:51:01;10.87;;;2.97;;
7525;SDS011;3804;50.860;6.208;2023-03-24T06:53:28;5.97;;;2.60;;
7525;SDS011;3804;50.860;6.208;2023-03-24T06:55:55;11.60;;;2.93;;
7525;SDS011;3804;50.860;6.208;2023-03-24T06:58:24;6.07;;;2.70;;
7525;SDS011;3804;50.860;6.208;2023-03-24T07:00:58;8.00;;;2.93;;
7525;SDS011;3804;50.860;6.208;2023-03-24T07:03:38;5.40;;;2.30;;
7525;SDS011;3804;50.860;6.208;2023-03-24T07:06:24;7.60;;;2.73;;
7525;SDS011;3804;50.860;6.208;2023-03-24T07:08:57;7.40;;;3.30;;
7525;SDS011;3804;50.860;6.208;2023-03-24T07:11:27;9.03;;;3.43;;
7525;SDS011;3804;50.860;6.208;2023-03-24T07:13:57;11.57;;;3.20;;
7525;SDS011;3804;50.860;6.208;2023-03-24T07:16:25;10.07;;;3.20;;
7525;SDS011;3804;50.860;6.208;2023-03-24T07:19:01;8.90;;;3.30;;
7525;SDS011;3804;50.860;6.208;2023-03-24T07:21:32;8.20;;;3.13;;
7525;SDS011;3804;50.860;6.208;2023-03-24T07:23:59;9.57;;;3.20;;
7525;SDS011;3804;50.860;6.208;2023-03-24T07:26:47;8.03;;;2.93;;
7525;SDS011;3804;50.860;6.208;2023-03-24T07:29:21;8.43;;;3.07;;
7525;SDS011;3804;50.860;6.208;2023-03-24T07:32:07;5.43;;;3.20;;
7525;SDS011;3804;50.860;6.208;2023-03-24T07:34:34;9.43;;;3.57;;
7525;SDS011;3804;50.860;6.208;2023-03-24T07:37:05;7.60;;;3.03;;
7525;SDS011;3804;50.860;6.208;2023-03-24T07:39:32;6.73;;;3.00;;
7525;SDS011;3804;50.860;6.208;2023-03-24T07:41:59;8.87;;;3.03;;
7525;SDS011;3804;50.860;6.208;2023-03-24T07:44:46;8.73;;;3.53;;
7525;SDS011;3804;50.860;6.208;2023-03-24T07:47:13;8.00;;;3.40;;
7525;SDS011;3804;50.860;6.208;2023-03-24T07:49:40;8.47;;;3.63;;
7525;SDS011;3804;50.860;6.208;2023-03-24T07:52:09;8.13;;;2.93;;
7525;SDS011;3804;50.860;6.208;2023-03-24T07:54:40;5.90;;;2.53;;
7525;SDS011;3804;50.860;6.208;2023-03-24T07:57:08;9.00;;;3.40;;
7525;SDS011;3804;50.860;6.208;2023-03-24T07:59:36;6.00;;;2.23;;
7525;SDS011;3804;50.860;6.208;2023-03-24T08:02:18;5.63;;;2.10;;
7525;SDS011;3804;50.860;6.208;2023-03-24T08:05:04;7.47;;;2.60;;
7525;SDS011;3804;50.860;6.208;2023-03-24T08:07:51;6.70;;;2.67;;
7525;SDS011;3804;50.860;6.208;2023-03-24T08:10:22;7.20;;;2.50;;
7525;SDS011;3804;50.860;6.208;2023-03-24T08:12:49;11.03;;;2.40;;
7525;SDS011;3804;50.860;6.208;2023-03-24T08:15:16;12.33;;;2.40;;
7525;SDS011;3804;50.860;6.208;2023-03-24T08:17:43;8.17;;;2.23;;
7525;SDS011;3804;50.860;6.208;2023-03-24T08:20:10;10.40;;;2.87;;
7525;SDS011;3804;50.860;6.208;2023-03-24T08:22:42;8.07;;;2.23;;
7525;SDS011;3804;50.860;6.208;2023-03-24T08:25:09;6.93;;;2.47;;
7525;SDS011;3804;50.860;6.208;2023-03-24T08:27:37;11.10;;;2.50;;
7525;SDS011;3804;50.860;6.208;2023-03-24T08:30:05;10.23;;;2.53;;
7525;SDS011;3804;50.860;6.208;2023-03-24T08:32:33;9.20;;;3.00;;
7525;SDS011;3804;50.860;6.208;2023-03-24T08:35:00;8.33;;;2.47;;
7525;SDS011;3804;50.860;6.208;2023-03-24T08:37:27;8.37;;;2.83;;
7525;SDS011;3804;50.860;6.208;2023-03-24T08:39:54;5.43;;;2.07;;
7525;SDS011;3804;50.860;6.208;2023-03-24T08:42:24;6.17;;;2.00;;
7525;SDS011;3804;50.860;6.208;2023-03-24T08:44:51;9.50;;;2.43;;
7525;SDS011;3804;50.860;6.208;2023-03-24T08:47:18;7.60;;;2.53;;
7525;SDS011;3804;50.860;6.208;2023-03-24T08:49:45;7.73;;;2.13;;
7525;SDS011;3804;50.860;6.208;2023-03-24T08:52:12;8.17;;;2.30;;
7525;SDS011;3804;50.860;6.208;2023-03-24T08:54:39;7.50;;;1.80;;
7525;SDS011;3804;50.860;6.208;2023-03-24T08:57:06;8.23;;;2.30;;
7525;SDS011;3804;50.860;6.208;2023-03-24T08:59:32;6.40;;;2.10;;
7525;SDS011;3804;50.860;6.208;2023-03-24T09:01:59;5.73;;;2.20;;
7525;SDS011;3804;50.860;6.208;2023-03-24T09:04:26;7.43;;;2.27;;
7525;SDS011;3804;50.860;6.208;2023-03-24T09:06:53;5.37;;;2.30;;
7525;SDS011;3804;50.860;6.208;2023-03-24T09:09:28;7.43;;;2.47;;
7525;SDS011;3804;50.860;6.208;2023-03-24T09:11:55;7.47;;;2.20;;
7525;SDS011;3804;50.860;6.208;2023-03-24T09:14:22;7.93;;;2.80;;
7525;SDS011;3804;50.860;6.208;2023-03-24T09:16:49;10.27;;;2.63;;
7525;SDS011;3804;50.860;6.208;2023-03-24T09:19:17;6.73;;;1.93;;
7525;SDS011;3804;50.860;6.208;2023-03-24T09:21:44;6.87;;;2.30;;
7525;SDS011;3804;50.860;6.208;2023-03-24T09:24:11;7.63;;;2.37;;
7525;SDS011;3804;50.860;6.208;2023-03-24T09:26:38;5.87;;;2.23;;
7525;SDS011;3804;50.860;6.208;2023-03-24T09:29:05;4.50;;;2.00;;
7525;SDS011;3804;50.860;6.208;2023-03-24T09:31:32;5.87;;;1.67;;
7525;SDS011;3804;50.860;6.208;2023-03-24T09:33:59;7.93;;;2.37;;
7525;SDS011;3804;50.860;6.208;2023-03-24T09:36:29;7.77;;;2.30;;
7525;SDS011;3804;50.860;6.208;2023-03-24T09:38:56;3.50;;;1.60;;
7525;SDS011;3804;50.860;6.208;2023-03-24T09:41:25;3.40;;;1.83;;
7525;SDS011;3804;50.860;6.208;2023-03-24T09:46:24;8.17;;;2.13;;
7525;SDS011;3804;50.860;6.208;2023-03-24T09:48:53;8.50;;;1.70;;
7525;SDS011;3804;50.860;6.208;2023-03-24T09:51:21;5.33;;;1.93;;
7525;SDS011;3804;50.860;6.208;2023-03-24T09:53:51;9.73;;;2.23;;
7525;SDS011;3804;50.860;6.208;2023-03-24T09:56:21;4.33;;;1.70;;
7525;SDS011;3804;50.860;6.208;2023-03-24T09:58:52;4.27;;;1.47;;
7525;SDS011;3804;50.860;6.208;2023-03-24T10:01:23;5.87;;;1.97;;
7525;SDS011;3804;50.860;6.208;2023-03-24T10:03:50;6.33;;;1.90;;
7525;SDS011;3804;50.860;6.208;2023-03-24T10:06:19;6.33;;;1.70;;
7525;SDS011;3804;50.860;6.208;2023-03-24T10:11:49;8.97;;;1.83;;
7525;SDS011;3804;50.860;6.208;2023-03-24T10:14:24;5.90;;;1.60;;
7525;SDS011;3804;50.860;6.208;2023-03-24T10:22:35;6.13;;;1.47;;
7525;SDS011;3804;50.860;6.208;2023-03-24T10:27:31;6.03;;;2.20;;
7525;SDS011;3804;50.860;6.208;2023-03-24T10:30:02;5.93;;;1.83;;
7525;SDS011;3804;50.860;6.208;2023-03-24T10:32:31;3.80;;;1.73;;
7525;SDS011;3804;50.860;6.208;2023-03-24T10:35:00;7.30;;;2.00;;
7525;SDS011;3804;50.860;6.208;2023-03-24T10:37:35;5.60;;;1.60;;
7525;SDS011;3804;50.860;6.208;2023-03-24T10:40:06;5.83;;;1.60;;
7525;SDS011;3804;50.860;6.208;2023-03-24T10:42:37;5.17;;;1.80;;
7525;SDS011;3804;50.860;6.208;2023-03-24T10:45:05;4.73;;;1.47;;
7525;SDS011;3804;50.860;6.208;2023-03-24T10:47:32;4.80;;;1.43;;
7525;SDS011;3804;50.860;6.208;2023-03-24T10:50:00;6.20;;;1.73;;
7525;SDS011;3804;50.860;6.208;2023-03-24T10:52:42;5.30;;;1.87;;
7525;SDS011;3804;50.860;6.208;2023-03-24T10:55:14;4.13;;;1.40;;
7525;SDS011;3804;50.860;6.208;2023-03-24T10:57:43;5.63;;;1.97;;
7525;SDS011;3804;50.860;6.208;2023-03-24T11:02:44;6.37;;;1.60;;
7525;SDS011;3804;50.860;6.208;2023-03-24T11:05:19;3.27;;;1.57;;
7525;SDS011;3804;50.860;6.208;2023-03-24T11:07:49;4.60;;;1.80;;
7525;SDS011;3804;50.860;6.208;2023-03-24T11:10:18;5.23;;;2.13;;
7525;SDS011;3804;50.860;6.208;2023-03-24T11:15:20;2.83;;;1.30;;
7525;SDS011;3804;50.860;6.208;2023-03-24T11:17:52;11.43;;;2.07;;
7525;SDS011;3804;50.860;6.208;2023-03-24T11:20:30;5.10;;;1.50;;
7525;SDS011;3804;50.860;6.208;2023-03-24T11:22:58;3.77;;;1.50;;
7525;SDS011;3804;50.860;6.208;2023-03-24T11:25:26;4.87;;;1.20;;
7525;SDS011;3804;50.860;6.208;2023-03-24T11:27:56;4.10;;;1.60;;
7525;SDS011;3804;50.860;6.208;2023-03-24T11:30:26;5.77;;;1.50;;
7525;SDS011;3804;50.860;6.208;2023-03-24T11:32:54;3.70;;;1.57;;
7525;SDS011;3804;50.860;6.208;2023-03-24T11:35:21;5.47;;;1.50;;
7525;SDS011;3804;50.860;6.208;2023-03-24T11:38:02;6.00;;;1.80;;
7525;SDS011;3804;50.860;6.208;2023-03-24T11:40:29;4.20;;;2.00;;
7525;SDS011;3804;50.860;6.208;2023-03-24T11:42:57;3.97;;;1.37;;
7525;SDS011;3804;50.860;6.208;2023-03-24T11:47:51;4.23;;;1.40;;
7525;SDS011;3804;50.860;6.208;2023-03-24T11:50:21;6.03;;;1.97;;
7525;SDS011;3804;50.860;6.208;2023-03-24T11:55:22;4.10;;;1.50;;
7525;SDS011;3804;50.860;6.208;2023-03-24T12:00:32;4.90;;;1.40;;
7525;SDS011;3804;50.860;6.208;2023-03-24T12:05:41;2.50;;;1.30;;
7525;SDS011;3804;50.860;6.208;2023-03-24T12:13:46;7.73;;;1.47;;
7525;SDS011;3804;50.860;6.208;2023-03-24T12:16:28;4.03;;;1.60;;
7525;SDS011;3804;50.860;6.208;2023-03-24T12:24:20;4.03;;;1.73;;
7525;SDS011;3804;50.860;6.208;2023-03-24T12:26:50;4.03;;;1.43;;
7525;SDS011;3804;50.860;6.208;2023-03-24T12:29:25;4.37;;;1.50;;
7525;SDS011;3804;50.860;6.208;2023-03-24T12:32:04;4.20;;;1.70;;
7525;SDS011;3804;50.860;6.208;2023-03-24T12:39:35;5.20;;;1.80;;
7525;SDS011;3804;50.860;6.208;2023-03-24T12:42:11;3.03;;;1.30;;
7525;SDS011;3804;50.860;6.208;2023-03-24T12:44:44;3.37;;;1.70;;
7525;SDS011;3804;50.860;6.208;2023-03-24T12:47:35;4.83;;;1.50;;
7525;SDS011;3804;50.860;6.208;2023-03-24T12:52:52;6.00;;;1.40;;
7525;SDS011;3804;50.860;6.208;2023-03-24T13:00:30;2.70;;;1.40;;
7525;SDS011;3804;50.860;6.208;2023-03-24T13:03:03;5.57;;;1.67;;
7525;SDS011;3804;50.860;6.208;2023-03-24T13:05:33;3.47;;;1.60;;
7525;SDS011;3804;50.860;6.208;2023-03-24T13:08:04;3.00;;;1.20;;
7525;SDS011;3804;50.860;6.208;2023-03-24T13:10:36;4.87;;;1.60;;
7525;SDS011;3804;50.860;6.208;2023-03-24T13:13:11;3.53;;;1.60;;
7525;SDS011;3804;50.860;6.208;2023-03-24T13:15:44;1.97;;;1.23;;
7525;SDS011;3804;50.860;6.208;2023-03-24T13:21:05;3.93;;;1.40;;
7525;SDS011;3804;50.860;6.208;2023-03-24T13:23:48;3.87;;;1.40;;
7525;SDS011;3804;50.860;6.208;2023-03-24T13:31:16;5.07;;;1.30;;
7525;SDS011;3804;50.860;6.208;2023-03-24T13:33:44;6.03;;;1.60;;
7525;SDS011;3804;50.860;6.208;2023-03-24T13:38:53;3.10;;;1.20;;
7525;SDS011;3804;50.860;6.208;2023-03-24T13:41:23;3.33;;;1.23;;
7525;SDS011;3804;50.860;6.208;2023-03-24T13:44:00;3.83;;;1.30;;
7525;SDS011;3804;50.860;6.208;2023-03-24T13:46:28;5.90;;;1.90;;
7525;SDS011;3804;50.860;6.208;2023-03-24T13:48:56;2.47;;;1.40;;
7525;SDS011;3804;50.860;6.208;2023-03-24T13:51:24;6.37;;;1.60;;
7525;SDS011;3804;50.860;6.208;2023-03-24T13:53:52;3.93;;;1.30;;
7525;SDS011;3804;50.860;6.208;2023-03-24T13:56:23;5.93;;;1.27;;
7525;SDS011;3804;50.860;6.208;2023-03-24T14:01:37;4.27;;;1.00;;
7525;SDS011;3804;50.860;6.208;2023-03-24T14:09:19;2.77;;;0.97;;
7525;SDS011;3804;50.860;6.208;2023-03-24T14:11:48;1.80;;;0.80;;
7525;SDS011;3804;50.860;6.208;2023-03-24T14:14:18;3.43;;;1.13;;
7525;SDS011;3804;50.860;6.208;2023-03-24T14:21:56;3.23;;;1.27;;
7525;SDS011;3804;50.860;6.208;2023-03-24T14:24:25;2.90;;;0.97;;
7525;SDS011;3804;50.860;6.208;2023-03-24T14:26:54;2.83;;;1.10;;
7525;SDS011;3804;50.860;6.208;2023-03-24T14:29:58;2.97;;;0.83;;
7525;SDS011;3804;50.860;6.208;2023-03-24T14:32:16;3.50;;;1.10;;
7525;SDS011;3804;50.860;6.208;2023-03-24T14:34:50;7.77;;;1.40;;
7525;SDS011;3804;50.860;6.208;2023-03-24T14:37:17;4.40;;;1.40;;
7525;SDS011;3804;50.860;6.208;2023-03-24T14:39:45;6.10;;;1.90;;
7525;SDS011;3804;50.860;6.208;2023-03-24T14:44:52;4.80;;;1.27;;
7525;SDS011;3804;50.860;6.208;2023-03-24T14:47:29;2.40;;;1.00;;
7525;SDS011;3804;50.860;6.208;2023-03-24T14:49:57;5.00;;;1.27;;
7525;SDS011;3804;50.860;6.208;2023-03-24T14:54:52;6.47;;;1.60;;
7525;SDS011;3804;50.860;6.208;2023-03-24T14:57:21;7.17;;;1.73;;
7525;SDS011;3804;50.860;6.208;2023-03-24T14:59:51;6.30;;;1.43;;
7525;SDS011;3804;50.860;6.208;2023-03-24T15:02:26;3.77;;;1.47;;
7525;SDS011;3804;50.860;6.208;2023-03-24T15:07:42;6.53;;;1.50;;
7525;SDS011;3804;50.860;6.208;2023-03-24T15:10:13;5.40;;;1.80;;
7525;SDS011;3804;50.860;6.208;2023-03-24T15:12:43;3.67;;;1.30;;
7525;SDS011;3804;50.860;6.208;2023-03-24T15:15:21;7.23;;;1.57;;
7525;SDS011;3804;50.860;6.208;2023-03-24T15:17:48;5.07;;;1.23;;
7525;SDS011;3804;50.860;6.208;2023-03-24T15:20:26;3.23;;;1.30;;
7525;SDS011;3804;50.860;6.208;2023-03-24T15:22:53;2.73;;;1.47;;
7525;SDS011;3804;50.860;6.208;2023-03-24T15:25:24;3.07;;;1.00;;
7525;SDS011;3804;50.860;6.208;2023-03-24T15:27:52;5.17;;;1.90;;
7525;SDS011;3804;50.860;6.208;2023-03-24T15:30:20;4.33;;;1.83;;
7525;SDS011;3804;50.860;6.208;2023-03-24T15:32:47;2.97;;;1.17;;
7525;SDS011;3804;50.860;6.208;2023-03-24T15:35:16;2.03;;;1.00;;
7525;SDS011;3804;50.860;6.208;2023-03-24T15:37:44;2.67;;;1.10;;
7525;SDS011;3804;50.860;6.208;2023-03-24T15:42:52;4.03;;;1.10;;
7525;SDS011;3804;50.860;6.208;2023-03-24T15:45:29;2.63;;;1.23;;
7525;SDS011;3804;50.860;6.208;2023-03-24T15:47:57;5.37;;;1.57;;
7525;SDS011;3804;50.860;6.208;2023-03-24T15:51:07;3.37;;;1.10;;
7525;SDS011;3804;50.860;6.208;2023-03-24T15:55:44;2.47;;;1.13;;
7525;SDS011;3804;50.860;6.208;2023-03-24T15:58:19;2.33;;;1.10;;
7525;SDS011;3804;50.860;6.208;2023-03-24T16:00:47;1.03;;;0.60;;
7525;SDS011;3804;50.860;6.208;2023-03-24T16:03:16;0.80;;;0.80;;
7525;SDS011;3804;50.860;6.208;2023-03-24T16:05:45;0.63;;;0.60;;
7525;SDS011;3804;50.860;6.208;2023-03-24T16:08:23;1.33;;;1.10;;
7525;SDS011;3804;50.860;6.208;2023-03-24T16:10:58;1.03;;;0.90;;
7525;SDS011;3804;50.860;6.208;2023-03-24T16:13:25;1.60;;;1.10;;
7525;SDS011;3804;50.860;6.208;2023-03-24T16:15:59;2.70;;;1.23;;
7525;SDS011;3804;50.860;6.208;2023-03-24T16:18:31;3.50;;;0.80;;
7525;SDS011;3804;50.860;6.208;2023-03-24T16:21:02;4.53;;;1.10;;
7525;SDS011;3804;50.860;6.208;2023-03-24T16:23:35;1.83;;;1.03;;
7525;SDS011;3804;50.860;6.208;2023-03-24T16:26:02;0.83;;;0.60;;
7525;SDS011;3804;50.860;6.208;2023-03-24T16:28:28;2.23;;;0.93;;
7525;SDS011;3804;50.860;6.208;2023-03-24T16:31:02;2.07;;;0.80;;
7525;SDS011;3804;50.860;6.208;2023-03-24T16:33:31;5.67;;;1.10;;
7525;SDS011;3804;50.860;6.208;2023-03-24T16:35:58;2.30;;;1.10;;
7525;SDS011;3804;50.860;6.208;2023-03-24T16:38:26;3.50;;;1.17;;
7525;SDS011;3804;50.860;6.208;2023-03-24T16:40:54;2.17;;;1.00;;
7525;SDS011;3804;50.860;6.208;2023-03-24T16:43:22;6.67;;;1.47;;
7525;SDS011;3804;50.860;6.208;2023-03-24T16:45:49;2.63;;;1.20;;
7525;SDS011;3804;50.860;6.208;2023-03-24T16:48:16;2.30;;;1.13;;
7525;SDS011;3804;50.860;6.208;2023-03-24T16:50:49;2.53;;;1.07;;
7525;SDS011;3804;50.860;6.208;2023-03-24T16:53:17;3.73;;;1.30;;
7525;SDS011;3804;50.860;6.208;2023-03-24T16:55:44;2.13;;;1.27;;
7525;SDS011;3804;50.860;6.208;2023-03-24T16:58:13;3.40;;;1.20;;
7525;SDS011;3804;50.860;6.208;2023-03-24T17:00:42;3.70;;;1.20;;
7525;SDS011;3804;50.860;6.208;2023-03-24T17:03:09;3.40;;;1.60;;
7525;SDS011;3804;50.860;6.208;2023-03-24T17:05:44;2.20;;;1.23;;
7525;SDS011;3804;50.860;6.208;2023-03-24T17:08:12;4.03;;;1.20;;
7525;SDS011;3804;50.860;6.208;2023-03-24T17:10:39;2.40;;;0.90;;
7525;SDS011;3804;50.860;6.208;2023-03-24T17:13:06;1.80;;;1.00;;
7525;SDS011;3804;50.860;6.208;2023-03-24T17:15:33;3.53;;;1.43;;
7525;SDS011;3804;50.860;6.208;2023-03-24T17:18:01;4.23;;;1.20;;
7525;SDS011;3804;50.860;6.208;2023-03-24T17:20:29;2.80;;;1.27;;
7525;SDS011;3804;50.860;6.208;2023-03-24T17:22:56;3.73;;;1.40;;
7525;SDS011;3804;50.860;6.208;2023-03-24T17:25:23;4.37;;;1.70;;
7525;SDS011;3804;50.860;6.208;2023-03-24T17:27:50;2.63;;;1.30;;
7525;SDS011;3804;50.860;6.208;2023-03-24T17:30:18;4.70;;;1.67;;
7525;SDS011;3804;50.860;6.208;2023-03-24T17:32:45;4.90;;;1.50;;
7525;SDS011;3804;50.860;6.208;2023-03-24T17:35:14;3.20;;;1.40;;
7525;SDS011;3804;50.860;6.208;2023-03-24T17:37:41;4.77;;;1.20;;
7525;SDS011;3804;50.860;6.208;2023-03-24T17:40:11;1.87;;;1.10;;
7525;SDS011;3804;50.860;6.208;2023-03-24T17:42:40;2.93;;;1.40;;
7525;SDS011;3804;50.860;6.208;2023-03-24T17:45:10;5.73;;;1.67;;
7525;SDS011;3804;50.860;6.208;2023-03-24T17:47:39;5.07;;;1.57;;
7525;SDS011;3804;50.860;6.208;2023-03-24T17:50:06;2.83;;;1.30;;
7525;SDS011;3804;50.860;6.208;2023-03-24T17:52:38;5.17;;;1.53;;
7525;SDS011;3804;50.860;6.208;2023-03-24T17:55:06;5.80;;;2.13;;
7525;SDS011;3804;50.860;6.208;2023-03-24T17:57:33;6.20;;;2.20;;
7525;SDS011;3804;50.860;6.208;2023-03-24T18:03:11;6.80;;;2.57;;